This is the latest recevied weather packets stored in our database for station/object DG8SF-13. If no packets are shown the sender has not sent any weather packets the latest 10 day(s).
| Time | Temp. | Humidity | Pressure | Rain* | Wind** | Luminosity | Snow |
|---|---|---|---|---|---|---|---|
| 1788105476 | 24.44° C | 60% | 1014.3 hPa | 0 mm | - | - | - |
| 1788105144 | 25.56° C | 58% | 1014.3 hPa | 0 mm | - | - | - |
| 1788104833 | 27.22° C | 51% | 1014.2 hPa | 0 mm | - | - | - |
| 1788104521 | 27.78° C | 52% | 1014.2 hPa | 0 mm | - | - | - |
| 1788104213 | 26.67° C | 54% | 1014.2 hPa | 0 mm | - | - | - |
| 1788103896 | 26.67° C | 54% | 1014.2 hPa | 0 mm | - | - | - |
| 1788103585 | 27.22° C | 52% | 1014.1 hPa | 0 mm | - | - | - |
| 1788103273 | 26.11° C | 56% | 1014.2 hPa | 0 mm | - | - | - |
| 1788102964 | 26.11° C | 57% | 1014.2 hPa | 0 mm | - | - | - |
| 1788102649 | 26.11° C | 55% | 1014.2 hPa | 0 mm | - | - | - |
| 1788102331 | 26.67° C | 55% | 1014.3 hPa | 0 mm | - | - | - |
| 1788102013 | 26.11° C | 54% | 1014.2 hPa | 0 mm | - | - | - |
| 1788101680 | 26.67° C | 53% | 1014.2 hPa | 0 mm | - | - | - |
| 1788101364 | 28.33° C | 50% | 1014.2 hPa | 0 mm | - | - | - |
| 1788101054 | 28.33° C | 49% | 1014.2 hPa | 0 mm | - | - | - |
| 1788100741 | 27.78° C | 51% | 1014.2 hPa | 0 mm | - | - | - |
| 1788100430 | 27.22° C | 50% | 1014.4 hPa | 0 mm | - | - | - |
| 1788100117 | 28.33° C | 49% | 1014.3 hPa | 0 mm | - | - | - |
| 1788099806 | 27.78° C | 49% | 1014.3 hPa | 0 mm | - | - | - |
| 1788099492 | 27.78° C | 50% | 1014.3 hPa | 0 mm | - | - | - |
| 1788099170 | 26.67° C | 52% | 1014.3 hPa | 0 mm | - | - | - |
| 1788098845 | 25.56° C | 54% | 1014.4 hPa | 0 mm | - | - | - |
| 1788098496 | 25.56° C | 55% | 1014.5 hPa | 0 mm | - | - | - |
| 1788098186 | 26.11° C | 54% | 1014.3 hPa | 0 mm | - | - | - |
| 1788097862 | 25.56° C | 54% | 1014.4 hPa | 0 mm | - | - | - |
* Rain latest hour (hover to see other rain measurements)
** Current wind speed in m/s (hover to see current wind gust speed)